Shoemakers, Pennsylvania
Current Conditions -  °F | °C
As of 5:15 AM on Friday 21 Nov 2014 (Local Time) from KHZL Reporting Station
Clear Clear  
Wind Chill: 13°   Ceiling: Unl
Heat Index: 19°   Visibility: 10mi
Dew Point: 10°   Wind: 5mph
Humidity: 68%   Direction: 250°WSW
Pressure: 30.11"   Gusts: NA
Location:  40.8128°N, 76.1382°W
Report Text: KHZL 211015Z AUTO 25004KT 10SM CLR M07/M12 A3011 RMK AO2
Loading
Personal Weather Stations






























Interactive Weather Map New forecast layout! Learn more

10-Day Weather Forecast

Advertisements
Track Severe Weather on mobile